METAR EFET 302050Z AUTO 21007KT 9999 OVC006 M01/M02 Q1032=
METAR EFHA 302050Z AUTO 20002KT 8000 -SHSN OVC002 M02/M02 Q1036 REFZRA=
METAR EFHK 302050Z 06004KT 9999 BKN014 M00/M01 Q1037 NOSIG=
METAR EFIV 302050Z AUTO 22005KT 9999 OVC033 M01/M03 Q1034=
METAR EFJO 302050Z AUTO 14003KT 6000 -SN OVC006 M03/M03 Q1037=
METAR EFJY 302050Z AUTO 17002KT 6000 -SN OVC004 M02/M03 Q1037=
METAR EFKE 302050Z AUTO 12003KT 9999 -FZRASN OVC012 M02/M02 Q1036 REFZRA=
METAR EFKI 302050Z AUTO 16003KT 3300 -SN OVC026 M03/M04 Q1036=
METAR EFKK 302050Z AUTO 16009KT 9999 OVC003 M02/M03 Q1037=
METAR EFKS 302050Z AUTO 14004KT 5000 -SN FEW005 OVC033 M04/M05 Q1035=
METAR EFKT 302050Z AUTO 20003KT 180V240 9999 OVC004 M03/M03 Q1034=
METAR EFKU 302050Z AUTO 20003KT 7000 -SN SCT008 OVC018 M03/M04 Q1037=
METAR EFLA 302120Z AUTO VRB02KT 2100 BR OVC002/// M02/M02 Q1036=
METAR EFLP 302050Z AUTO VRB01KT 5000 SCT001 OVC010 M04/M05 Q1037=
METAR EFMA 302050Z AUTO 13008KT 9999 -RA BKN021 03/02 Q1035=
METAR EFMI 302050Z AUTO VRB01KT 8000 OVC006 M03/M04 Q1037=
METAR EFOU 302050Z AUTO 14003KT 5000 -SHSN OVC034 M04/M04 Q1036=
METAR EFPO 302050Z AUTO 11004KT 9000 OVC002 M01/M01 Q1037=
METAR EFRO 302050Z AUTO VRB02KT 9999 -SHSN OVC003 M03/M04 Q1035=
METAR EFSA 302050Z AUTO VRB01KT 9000 -SHSN OVC005 M03/M04 Q1038=
METAR EFSI 302050Z AUTO 13002KT 3400 BR OVC002 M02/M03 Q1036=
METAR EFTP 302050Z AUTO 13002KT 9999 -FZRA BKN003 OVC021 M01/M02 Q1036=
METAR EFTU 302050Z AUTO 08003KT 9999 BKN038 M00/M01 Q1036=
METAR EFUT 302050Z AUTO 10005KT 4300 BR VV002 M03/M03 Q1037=
METAR EFVA 302050Z AUTO 04001KT CAVOK M04/M05 Q1037=
ILHF 302110Z AUTO VRB02KT 9999 OVC013 00/M00 Q1037=
ILIK 302110Z AUTO VRB02KT 0250 FZFG VV002 M01/M01 Q1036=
ILKA 302110Z AUTO 15002KT 8000 OVC003 M03/M03 Q1037=
ILKM 302110Z AUTO VRB02KT 9999 -SHSN FEW005 SCT007 BKN019 M03/M04 Q1035=
ILPR 302110Z AUTO VRB02KT 2900 -SHSN BKN011 OVC027 M02/M02 Q1038=
ILPU 302110Z AUTO VRB02KT 3300 -SN FEW011 SCT014 BKN024 M03/M04 Q1036=
ILQA 302110Z AUTO 14004KT 3600 -SN OVC020 M03/M04 Q1035=
ILQB 302110Z AUTO 20008KT 170V230 9999 OVC032 M01/M03 Q1034=
ILQC 302110Z AUTO 19004KT 150V220 9999 OVC004 M02/M02 Q1033=
ILQD 302110Z AUTO /////KT 9999 OVC009 M01/M02 Q////=
ILQE 302110Z AUTO 13003KT 090V190 9999 -SN BKN003 OVC005 M02/M02 Q1035=
ILQF 302110Z AUTO 09002KT 3900 -SN OVC006 M03/M03 Q1036=
ILQG 302110Z AUTO 19003KT 150V220 9999 -SHSN OVC030 M03/M04 Q1035=
ILQH 302110Z AUTO 16008KT 5000 -SN OVC013 M02/M03 Q1036=
ILQI 302110Z AUTO 21006KT 160V250 //// // OVC001 M03/M03 Q1032=
ILQJ 302110Z AUTO 15007KT 9999 -FZRA FEW004 BKN011 M01/M02 Q1036=
ILQK 302110Z AUTO 21007KT 0050 -SN ////// M04/M04 Q1030=
ILQL 302110Z AUTO 15006KT 4600 -SN ////// M03/M04 Q1036=
ILQM 302110Z AUTO 20004KT 110V270 9999 OVC003 M03/M04 Q////=
ILQN 302110Z AUTO VRB01KT 9999 OVC037 M08/M09 Q1031=
ILQO 302110Z AUTO 15003KT 120V190 9000 SG SCT015 BKN019 BKN025 M03/M04 Q1035=
ILQP 302110Z AUTO 15008KT 4000 SG ////// M02/M03 Q1036=
ILQQ 302110Z AUTO 12003KT 9999 -SHSN OVC004 M01/M02 Q1036=
ILQR 302110Z AUTO VRB01KT 9000 SG SCT008 BKN014 M03/M03 Q1035=
ILQS 302110Z AUTO VRB01KT 2300 -SN FEW020 BKN023 OVC030 M04/M05 Q1035=
ILQT 302110Z AUTO 19007KT 1800 -FZRASN OVC004 M02/M02 Q1032=
ILQU 302110Z AUTO 17005KT 140V210 9999 BKN022 M00/M03 Q1033=
ILQV 302110Z AUTO VRB01KT 4200 -SN BKN005 BKN007 M03/M04 Q1034=
ILQX 302110Z AUTO VRB02KT 2400 -SN OVC036 M04/M04 Q1036=
ILQY 302110Z AUTO 16003KT 3300 -SN FEW011 OVC049 M04/M05 Q1036=
ILRU 302110Z AUTO VRB02KT 5000 SG OVC003 M03/M04 Q1035=
ILWA 302110Z AUTO 08005KT 050V110 9999 FEW014 OVC023 00/M00 Q1037=
ILWD 302110Z AUTO /////KT //// // SCT002 BKN018 M03/M03 Q////=
ILWE 302110Z AUTO 19009KT 150V230 9000 -SN FEW003 OVC021 M02/M03 Q1032=
ILWF 302110Z AUTO 17003KT 140V200 4000 -SN OVC034 M03/M04 Q////=
ILWG 302110Z AUTO /////KT 3500 -SHSN BKN002 OVC009 M02/M03 Q1036=
ILXA 302110Z AUTO /////KT 4500 -SHSN OVC003 M02/M03 Q1036=
ILXB 302110Z AUTO 13003KT 100V160 6000 OVC002 M01/M01 Q1037=
ILXC 302110Z AUTO 19005KT 150V240 5000 FZUP OVC003 M03/M04 Q1038=
ILXD 302110Z AUTO /////KT 4800 -SN OVC008 M03/M03 Q1038=
ILXE 302110Z AUTO 17003KT 6000 -SN FEW024 BKN041 BKN049 M04/M05 Q1036=
ILXF 302110Z AUTO 13008KT 9999 UP OVC016 01/01 Q1036=
ILXG 302110Z AUTO 13008KT 9999 BKN015 00/M01 Q1037=
ILXI 302110Z AUTO VRB02KT 9999 BKN007 M04/M05 Q1038=
ILXJ 302110Z AUTO VRB02KT 1300 SN OVC020 M03/M04 Q1036=
ILXK 302110Z AUTO 22004KT 110V250 1800 -SN VV009 M04/M04 Q1036=
ILXL 302110Z AUTO /////KT 9000 OVC006 M04/M04 Q1036=
ILXM 302110Z AUTO /////KT 2700 -SN OVC034 M03/M03 Q////=
ILXN 302110Z AUTO VRB02KT 5000 -SHSN FEW000 BKN004 M02/M02 Q1036=
ILXO 302110Z AUTO VRB02KT 9999 FEW002 BKN004 BKN006 M02/M02 Q1036=
ILXP 302110Z AUTO 13007KT 9999 BKN002 BKN037 M00/M01 Q1037=
ILXQ 302110Z AUTO /////KT 8000 OVC003 M02/M02 Q////=
ILXR 302110Z AUTO 17003KT 140V210 4800 -FZRASN SCT005 BKN007 BKN009 M03/M04 Q1037=
ILXS 302110Z AUTO VRB02KT 1300 -SN OVC018 M04/M04 Q1036=
ILXT 302110Z AUTO 21008KT 9999 OVC012 M01/M02 Q1037=
ILXU 302110Z AUTO /////KT 3600 -FZRASN OVC009 M03/M03 Q1038=
ILXV 302110Z AUTO VRB02KT 9000 OVC003 M03/M03 Q1036=
ILXW 302110Z AUTO VRB02KT 9999 FZUP OVC006 M03/M03 Q1036=
ILXX 302110Z AUTO VRB02KT CAVOK M03/M04 Q1037=
ILXY 302110Z AUTO 17003KT 100V210 9000 -SN FEW005 OVC013 M03/M03 Q1037=
ILXZ 302110Z AUTO VRB02KT 7000 BKN008 OVC010 M02/M03 Q////=
ILYL 302110Z AUTO 17003KT 8000 SG BKN004 BKN006 M03/M04 Q1036=
ILZA 302110Z AUTO 15005KT 9999 OVC012 01/M01 Q1038=
ILZB 302110Z AUTO 15005KT 120V200 9999 -SHRA OVC016 03/02 Q1035=
ILZC 302100Z AUTO /////KT 3500 BR OVC001 M04/M04 Q1037=
ILZD 302110Z AUTO 10003KT 9999 OVC012 00/M00 Q1037=
ILZE 302110Z AUTO 14004KT 100V170 9999 OVC011 01/M01 Q1038=
ILZF 302110Z AUTO 06003KT 6000 OVC009 M00/M00 Q1037=
ILZG 302110Z AUTO /////KT 2700 BR BKN002 OVC008 M01/M01 Q1037=
ILZH 302110Z AUTO /////KT 7000 -SHSN BKN004 OVC025 M01/M02 Q1036=
ILZI 302110Z AUTO 13011KT 9999 FEW003 BKN031 02/02 Q////=
ILZJ 302110Z AUTO 12003KT 1100 BR VV001 M01/M01 Q1036=
ILZK 302110Z AUTO 14006KT 110V170 CAVOK 04/01 Q////=
ILZL 302110Z AUTO 15002KT 4700 -SHSN SCT001 BKN006 OVC014 M01/M01 Q1036=
ILZM 302110Z AUTO /////KT 6000 OVC003 M01/M01 Q1037=
ILZO 302110Z AUTO 10005KT 070V130 9999 OVC016 00/M00 Q1037=
ILZP 302110Z AUTO VRB02KT 3600 BR OVC002 M01/M01 Q1036=
ILZQ 302110Z AUTO VRB01KT 8000 OVC011 M01/M01 Q1037=
ILZR 302110Z AUTO VRB02KT 9999 FEW005 SCT040 00/M00 Q1037=
ILZS 302110Z AUTO 14004KT 080V230 9999 OVC013 01/M01 Q1037=
ILZT 302110Z AUTO 13006KT 100V170 9999 OVC011 02/M01 Q1037=
ILZU 302110Z AUTO 12008KT 9999 OVC014 04/01 Q1036=
ILZV 302110Z AUTO 02002KT 7000 BKN013 OVC016 M01/M01 Q1037=
ILZW 302110Z AUTO 07003KT 9999 -SHRA OVC006 01/00 Q1037=
ILZX 302110Z AUTO VRB02KT 9999 OVC012 01/00 Q1037=
ILZY 302110Z AUTO 13012KT 9999 FEW009 SCT019 BKN043 04/02 Q1035=
ILZZ 302110Z AUTO /////KT 2100 BR OVC001 M02/M02 Q1037=